Time;durP1;ratioP1;P1;durP2;ratioP2;P2;SDS_P1;SDS_P2;PMS_P1;PMS_P2;Temp;Humidity;BMP_temperature;BMP_pressure;BME280_temperature;BME280_humidity;BME280_pressure;Samples;Min_cycle;Max_cycle;Signal;HPM_P1;HPM_P2
2021/06/12 00:00:30;;;;;;;13.43;10.40;;;18.90;78.20;;;;;;5025505;28;20111;-70
2021/06/12 00:02:57;;;;;;;12.48;11.13;;;18.90;78.60;;;;;;5052469;28;20492;-70
2021/06/12 00:05:23;;;;;;;13.10;11.43;;;18.80;78.50;;;;;;5031073;28;20437;-70
2021/06/12 00:07:49;;;;;;;12.32;11.07;;;18.70;78.30;;;;;;5048088;28;20025;-70
2021/06/12 00:10:22;;;;;;;13.45;11.85;;;18.60;78.20;;;;;;5044778;28;20083;-70
2021/06/12 00:12:48;;;;;;;17.30;11.85;;;18.50;78.60;;;;;;5044247;28;20040;-71
2021/06/12 00:15:16;;;;;;;14.30;12.02;;;18.40;79.00;;;;;;5051468;28;20031;-70
2021/06/12 00:17:43;;;;;;;18.92;13.40;;;18.40;79.10;;;;;;5052533;28;20025;-70
2021/06/12 00:20:12;;;;;;;14.63;12.65;;;18.30;79.30;;;;;;5052402;28;20075;-71
2021/06/12 00:22:38;;;;;;;17.83;13.55;;;18.40;79.60;;;;;;5033969;28;20037;-70
2021/06/12 00:25:05;;;;;;;18.15;12.73;;;18.40;79.50;;;;;;5032857;28;20032;-70
2021/06/12 00:27:31;;;;;;;17.88;13.98;;;18.40;79.60;;;;;;5048285;28;20029;-70
2021/06/12 00:29:56;;;;;;;17.13;14.23;;;18.30;79.70;;;;;;5047575;28;20036;-70
2021/06/12 00:32:22;;;;;;;15.70;14.02;;;18.30;79.70;;;;;;5050113;28;20111;-71
2021/06/12 00:34:47;;;;;;;16.10;14.27;;;18.20;79.70;;;;;;5049727;28;20469;-70
2021/06/12 00:37:13;;;;;;;17.77;14.95;;;18.20;80.30;;;;;;5052521;28;20044;-70
2021/06/12 00:39:38;;;;;;;21.10;15.75;;;18.10;79.60;;;;;;5051545;28;20120;-70
2021/06/12 00:42:05;;;;;;;18.88;15.68;;;18.00;79.80;;;;;;5051147;28;20032;-70
2021/06/12 00:44:31;;;;;;;20.58;15.93;;;18.00;80.10;;;;;;5032831;28;20039;-70
2021/06/12 00:46:56;;;;;;;21.55;15.35;;;17.90;80.30;;;;;;5051545;28;20025;-70
2021/06/12 00:49:22;;;;;;;20.50;17.00;;;17.90;80.60;;;;;;5051630;28;20396;-70
2021/06/12 00:51:48;;;;;;;20.38;16.88;;;17.90;80.80;;;;;;5051904;28;20035;-71
2021/06/12 00:54:14;;;;;;;22.85;17.35;;;17.90;81.00;;;;;;5050256;28;20082;-70
2021/06/12 00:56:40;;;;;;;21.17;17.55;;;17.90;81.10;;;;;;5034044;28;20029;-70
2021/06/12 00:59:05;;;;;;;19.52;15.20;;;17.90;81.30;;;;;;5045634;28;20037;-70
2021/06/12 01:01:31;;;;;;;16.90;15.05;;;17.90;81.30;;;;;;5047687;28;20488;-70
2021/06/12 01:03:59;;;;;;;19.90;15.82;;;17.90;81.30;;;;;;5049936;28;20021;-70
2021/06/12 01:06:25;;;;;;;18.33;15.77;;;17.90;81.40;;;;;;5033351;28;20028;-71
2021/06/12 01:08:50;;;;;;;20.85;16.02;;;17.90;81.50;;;;;;5033667;28;20029;-70
2021/06/12 01:11:17;;;;;;;19.10;15.30;;;17.80;81.20;;;;;;5039296;28;20025;-71
2021/06/12 01:14:13;;;;;;;21.50;15.18;;;17.80;81.40;;;;;;5033746;28;20040;-70
2021/06/12 01:16:49;;;;;;;18.83;15.30;;;17.80;81.80;;;;;;5033250;28;20032;-70
2021/06/12 01:19:37;;;;;;;18.92;14.40;;;17.80;81.60;;;;;;5048165;28;20087;-70
2021/06/12 01:22:08;;;;;;;18.85;15.07;;;17.70;81.60;;;;;;5045376;28;20029;-71
2021/06/12 01:24:53;;;;;;;18.42;15.43;;;17.60;81.50;;;;;;5045382;28;20104;-70
2021/06/12 01:27:50;;;;;;;17.40;15.48;;;17.60;82.00;;;;;;5040640;28;20041;-71
2021/06/12 01:30:30;;;;;;;16.85;14.98;;;17.50;82.00;;;;;;5038597;28;20021;-70
2021/06/12 01:33:02;;;;;;;18.55;16.15;;;17.50;82.10;;;;;;5051175;28;20025;-70
2021/06/12 01:35:29;;;;;;;18.90;15.88;;;17.50;82.30;;;;;;5050019;28;20496;-71
2021/06/12 01:37:57;;;;;;;19.20;16.48;;;17.60;82.10;;;;;;5032175;28;20405;-69
2021/06/12 01:40:29;;;;;;;18.83;16.83;;;17.60;82.70;;;;;;5051569;28;20075;-71
2021/06/12 01:42:57;;;;;;;21.02;16.77;;;17.50;82.20;;;;;;5033111;28;20103;-70
2021/06/12 01:45:23;;;;;;;19.30;16.05;;;17.50;82.20;;;;;;5032240;28;20033;-71
2021/06/12 01:47:51;;;;;;;20.58;17.25;;;17.50;82.30;;;;;;5032201;28;20397;-70
2021/06/12 01:50:18;;;;;;;20.05;17.23;;;17.50;82.30;;;;;;5032904;28;20036;-70
2021/06/12 01:52:45;;;;;;;20.17;16.45;;;17.50;82.50;;;;;;5050528;28;20021;-71
2021/06/12 01:55:12;;;;;;;20.52;16.80;;;17.50;82.70;;;;;;5045766;28;20063;-70
2021/06/12 01:57:41;;;;;;;18.23;15.23;;;17.50;82.70;;;;;;5049636;28;20040;-69
2021/06/12 02:00:08;;;;;;;22.08;17.02;;;17.50;82.70;;;;;;5041212;28;20025;-71
2021/06/12 02:02:35;;;;;;;21.13;17.20;;;17.50;82.70;;;;;;5044830;28;20041;-71
2021/06/12 02:05:01;;;;;;;20.13;17.40;;;17.50;82.60;;;;;;5032032;28;20370;-69
2021/06/12 02:07:29;;;;;;;20.17;17.00;;;17.50;82.60;;;;;;5032482;28;20084;-71
2021/06/12 02:09:55;;;;;;;19.50;16.40;;;17.50;82.70;;;;;;5026950;28;20079;-70
2021/06/12 02:12:23;;;;;;;19.73;16.17;;;17.40;82.60;;;;;;5019838;28;20032;-70
2021/06/12 02:14:50;;;;;;;21.23;16.25;;;17.30;82.70;;;;;;5043127;28;20112;-69
2021/06/12 02:17:16;;;;;;;19.70;15.15;;;17.30;82.70;;;;;;5050492;28;20098;-70
2021/06/12 02:19:43;;;;;;;17.50;15.15;;;17.30;83.00;;;;;;5048970;28;20021;-71
2021/06/12 02:22:09;;;;;;;19.33;16.38;;;17.30;83.00;;;;;;5049461;28;20108;-70
2021/06/12 02:24:35;;;;;;;18.33;16.33;;;17.30;83.10;;;;;;5048662;28;20215;-71
2021/06/12 02:27:01;;;;;;;22.08;16.02;;;17.20;83.10;;;;;;5032469;28;20023;-71
2021/06/12 02:29:28;;;;;;;17.58;15.63;;;17.20;83.10;;;;;;5041321;28;20026;-69
2021/06/12 02:32:17;;;;;;;18.60;16.60;;;17.20;83.20;;;;;;5030492;28;20122;-71
2021/06/12 02:34:42;;;;;;;20.38;16.02;;;17.20;83.40;;;;;;5038795;28;20035;-71
2021/06/12 02:37:08;;;;;;;20.40;16.60;;;17.20;83.10;;;;;;5049973;28;20385;-71
2021/06/12 02:39:34;;;;;;;18.70;15.93;;;17.20;83.20;;;;;;5049760;28;20056;-71
2021/06/12 02:42:00;;;;;;;17.58;15.57;;;17.10;83.20;;;;;;5032019;28;20399;-71
2021/06/12 02:44:27;;;;;;;17.45;15.63;;;17.10;83.20;;;;;;5048836;28;20028;-70
2021/06/12 02:46:58;;;;;;;19.52;15.68;;;17.10;83.10;;;;;;5049413;28;20017;-70
2021/06/12 02:49:27;;;;;;;20.35;16.75;;;17.10;83.20;;;;;;5050053;28;20028;-70
2021/06/12 02:51:58;;;;;;;17.90;15.52;;;17.10;83.20;;;;;;5049547;28;20496;-70
2021/06/12 02:54:26;;;;;;;21.83;15.23;;;17.10;83.30;;;;;;5048909;28;20106;-69
2021/06/12 02:56:55;;;;;;;20.45;15.30;;;17.10;83.50;;;;;;5049386;28;20040;-71
2021/06/12 02:59:22;;;;;;;20.20;15.00;;;17.00;83.30;;;;;;5063674;22;20458;-69
2021/06/12 03:01:49;;;;;;;19.88;16.27;;;17.00;83.40;;;;;;5040247;28;20108;-69
2021/06/12 03:04:17;;;;;;;16.70;14.95;;;16.90;83.60;;;;;;5045794;28;20032;-69
2021/06/12 03:06:49;;;;;;;20.27;16.30;;;16.80;84.20;;;;;;5048116;28;20091;-69
2021/06/12 03:09:17;;;;;;;19.60;16.17;;;16.80;83.80;;;;;;5038242;28;20017;-69
2021/06/12 03:11:45;;;;;;;17.65;15.07;;;16.70;83.60;;;;;;5030500;28;20071;-69
2021/06/12 03:14:13;;;;;;;18.52;15.00;;;16.60;83.80;;;;;;5042813;28;20432;-69
2021/06/12 03:16:41;;;;;;;26.35;17.08;;;16.50;83.90;;;;;;5048729;28;20504;-69
2021/06/12 03:19:08;;;;;;;21.83;17.25;;;16.50;84.20;;;;;;5048732;28;20028;-69
2021/06/12 03:21:34;;;;;;;20.45;16.85;;;16.40;84.20;;;;;;5045081;28;20025;-69
2021/06/12 03:24:01;;;;;;;20.83;17.63;;;16.40;84.40;;;;;;5041412;28;20091;-69
2021/06/12 03:26:27;;;;;;;19.92;16.23;;;16.40;84.80;;;;;;5047317;28;20629;-69
2021/06/12 03:28:54;;;;;;;19.33;16.85;;;16.40;84.90;;;;;;5048691;28;20032;-69
2021/06/12 03:31:20;;;;;;;21.30;18.63;;;16.40;84.90;;;;;;5041721;28;20480;-69
2021/06/12 03:33:46;;;;;;;24.17;19.25;;;16.50;84.90;;;;;;5047423;28;20077;-69
2021/06/12 03:36:12;;;;;;;27.35;19.90;;;16.50;84.90;;;;;;5052158;28;20104;-69
2021/06/12 03:38:38;;;;;;;22.65;19.70;;;16.40;84.80;;;;;;5053283;28;20036;-69
2021/06/12 03:41:05;;;;;;;24.08;19.48;;;16.40;84.90;;;;;;5053164;28;20025;-69
2021/06/12 03:43:32;;;;;;;24.77;19.00;;;16.40;85.20;;;;;;5053821;28;20067;-69
2021/06/12 03:45:59;;;;;;;21.83;18.33;;;16.40;85.20;;;;;;5051593;28;20056;-70
2021/06/12 03:48:25;;;;;;;26.13;17.58;;;16.30;85.00;;;;;;5053136;28;20025;-69
2021/06/12 03:50:55;;;;;;;20.30;18.15;;;16.30;85.10;;;;;;5053216;28;20059;-69
2021/06/12 03:53:22;;;;;;;19.30;16.65;;;16.30;85.20;;;;;;5053102;28;20021;-69
2021/06/12 03:55:49;;;;;;;20.00;16.98;;;16.30;85.30;;;;;;5051415;28;20025;-69
2021/06/12 03:58:16;;;;;;;24.15;16.83;;;16.20;85.50;;;;;;5052961;28;20090;-69
2021/06/12 04:00:44;;;;;;;21.10;17.45;;;16.30;85.70;;;;;;5042252;28;20037;-69
2021/06/12 04:03:10;;;;;;;20.92;17.15;;;16.30;85.80;;;;;;5046290;28;20031;-69
2021/06/12 04:05:35;;;;;;;22.15;17.08;;;16.30;85.80;;;;;;5052535;28;20025;-69
2021/06/12 04:08:01;;;;;;;19.20;17.05;;;16.30;85.80;;;;;;5067688;28;20045;-69
2021/06/12 04:10:27;;;;;;;20.05;16.30;;;16.30;85.90;;;;;;5059022;28;20037;-69
2021/06/12 04:12:52;;;;;;;22.40;16.50;;;16.40;86.00;;;;;;5050743;28;20035;-69
2021/06/12 04:15:18;;;;;;;18.33;16.23;;;16.40;85.80;;;;;;5051498;28;20496;-69
2021/06/12 04:17:49;;;;;;;20.88;16.75;;;16.40;85.70;;;;;;5052908;28;20028;-69
2021/06/12 04:20:15;;;;;;;18.65;16.13;;;16.30;85.70;;;;;;5051157;28;20029;-69
2021/06/12 04:22:41;;;;;;;19.63;17.35;;;16.30;85.60;;;;;;5052449;28;20033;-69
2021/06/12 04:25:07;;;;;;;24.20;16.60;;;16.30;85.70;;;;;;5051904;28;20031;-69
2021/06/12 04:27:33;;;;;;;20.00;16.52;;;16.20;85.80;;;;;;5067531;28;20083;-69
2021/06/12 04:29:59;;;;;;;21.30;17.48;;;16.20;86.00;;;;;;5052325;28;20066;-69
2021/06/12 04:32:25;;;;;;;23.67;18.13;;;16.20;86.20;;;;;;5036271;28;20389;-69
2021/06/12 04:34:51;;;;;;;20.20;16.90;;;16.30;86.20;;;;;;5035952;28;20049;-69
2021/06/12 04:37:16;;;;;;;22.67;18.20;;;16.30;86.40;;;;;;5051622;28;20039;-69
2021/06/12 04:39:42;;;;;;;24.40;19.75;;;16.30;86.50;;;;;;5051300;28;20051;-69
2021/06/12 04:42:08;;;;;;;22.77;18.73;;;16.40;86.30;;;;;;5067135;28;20059;-69
2021/06/12 04:44:35;;;;;;;23.77;19.08;;;16.40;86.10;;;;;;5066773;28;20029;-69
2021/06/12 04:47:01;;;;;;;23.63;19.20;;;16.40;86.20;;;;;;5052997;28;20039;-69
2021/06/12 04:49:27;;;;;;;28.38;22.42;;;16.50;86.40;;;;;;5051941;28;20025;-69
2021/06/12 04:51:52;;;;;;;25.15;20.55;;;16.50;86.50;;;;;;5051864;28;20032;-69
2021/06/12 04:54:18;;;;;;;25.40;20.48;;;16.50;86.40;;;;;;5048744;28;20492;-69
2021/06/12 04:56:44;;;;;;;26.27;20.38;;;16.50;86.30;;;;;;5049040;28;20397;-69
2021/06/12 04:59:09;;;;;;;24.38;19.50;;;16.60;86.20;;;;;;5051470;28;20052;-69
2021/06/12 05:01:35;;;;;;;20.25;17.40;;;16.60;86.40;;;;;;5043229;28;20119;-69
2021/06/12 05:04:00;;;;;;;19.98;16.38;;;16.70;86.60;;;;;;5065684;28;20025;-69
2021/06/12 05:06:26;;;;;;;19.63;15.70;;;16.70;86.60;;;;;;5050580;28;20053;-69
2021/06/12 05:08:52;;;;;;;18.65;15.10;;;16.80;86.70;;;;;;5051255;28;20025;-69
2021/06/12 05:11:18;;;;;;;23.02;18.45;;;16.90;86.50;;;;;;5045686;28;20111;-69
2021/06/12 05:13:44;;;;;;;16.73;14.98;;;16.90;86.30;;;;;;5039243;28;20056;-69
2021/06/12 05:16:09;;;;;;;19.52;15.10;;;16.90;86.10;;;;;;5047733;28;20040;-69
2021/06/12 05:18:43;;;;;;;16.35;14.40;;;17.00;86.00;;;;;;5051086;28;20361;-69
2021/06/12 05:21:10;;;;;;;17.00;14.70;;;16.90;86.00;;;;;;5067135;28;20115;-69
2021/06/12 05:23:36;;;;;;;15.13;13.32;;;16.90;86.00;;;;;;5049818;28;20055;-69
2021/06/12 05:26:06;;;;;;;14.52;13.02;;;17.00;86.10;;;;;;5048564;28;20028;-69
2021/06/12 05:28:32;;;;;;;18.38;13.15;;;17.00;86.40;;;;;;5036118;28;20025;-69
2021/06/12 05:30:58;;;;;;;17.05;13.32;;;17.10;86.20;;;;;;5044928;28;20074;-69
2021/06/12 05:33:24;;;;;;;15.93;12.73;;;17.10;86.10;;;;;;5051189;28;20037;-69
2021/06/12 05:35:51;;;;;;;17.30;13.68;;;17.20;86.30;;;;;;5050434;28;20044;-69
2021/06/12 05:38:18;;;;;;;16.10;12.70;;;17.30;86.50;;;;;;5051237;28;20028;-69
2021/06/12 05:40:44;;;;;;;17.02;13.38;;;17.50;86.40;;;;;;5050101;28;20032;-69
2021/06/12 05:43:10;;;;;;;14.80;12.18;;;17.50;86.20;;;;;;5049342;28;20501;-69
2021/06/12 05:45:36;;;;;;;15.07;12.52;;;17.60;86.30;;;;;;5049256;28;20025;-69
2021/06/12 05:48:02;;;;;;;18.15;13.18;;;17.70;86.30;;;;;;5050728;28;20335;-69
2021/06/12 05:50:27;;;;;;;14.63;13.00;;;17.90;86.20;;;;;;5051330;28;20032;-69
2021/06/12 05:52:53;;;;;;;15.60;13.35;;;17.90;85.70;;;;;;5050939;28;20444;-69
2021/06/12 05:55:18;;;;;;;14.63;12.60;;;18.00;85.70;;;;;;5049726;28;20021;-69
2021/06/12 05:57:44;;;;;;;14.85;13.27;;;18.10;85.50;;;;;;5050448;28;20088;-69
2021/06/12 06:00:10;;;;;;;13.63;11.60;;;18.10;85.30;;;;;;5048587;28;20496;-69
2021/06/12 06:02:36;;;;;;;11.60;10.32;;;18.20;85.30;;;;;;5049394;28;20052;-69
2021/06/12 06:05:01;;;;;;;12.38;11.07;;;18.30;85.50;;;;;;5047283;28;20057;-69
2021/06/12 06:07:27;;;;;;;12.68;10.15;;;18.40;85.40;;;;;;5049119;28;20071;-69
2021/06/12 06:09:52;;;;;;;14.45;12.10;;;18.50;85.20;;;;;;5045938;28;20053;-69
2021/06/12 06:12:18;;;;;;;11.48;10.27;;;18.60;85.00;;;;;;5037273;28;20051;-69
2021/06/12 06:14:44;;;;;;;13.48;9.18;;;18.70;84.80;;;;;;5048689;28;20074;-69
2021/06/12 06:17:09;;;;;;;12.25;10.20;;;18.80;84.50;;;;;;5065735;28;20094;-69
2021/06/12 06:19:35;;;;;;;13.30;9.73;;;19.00;84.30;;;;;;5050769;28;20082;-69
2021/06/12 06:22:00;;;;;;;10.57;8.57;;;19.10;84.10;;;;;;5049033;28;20017;-69
2021/06/12 06:24:26;;;;;;;9.63;8.73;;;19.20;84.00;;;;;;5044715;28;20392;-70
2021/06/12 06:26:52;;;;;;;10.68;7.85;;;19.30;83.80;;;;;;5049409;28;20040;-69
2021/06/12 06:29:17;;;;;;;10.05;7.72;;;19.40;83.60;;;;;;5050167;28;20108;-69
2021/06/12 06:31:44;;;;;;;10.27;8.05;;;19.60;83.40;;;;;;5041827;28;20021;-70
2021/06/12 06:34:11;;;;;;;8.80;7.90;;;19.80;83.20;;;;;;5044081;28;20430;-69
2021/06/12 06:36:37;;;;;;;9.45;8.00;;;19.90;82.60;;;;;;5050712;28;20033;-69
2021/06/12 06:39:03;;;;;;;11.27;8.05;;;20.10;82.60;;;;;;5046768;28;20025;-70
2021/06/12 06:41:28;;;;;;;9.13;8.20;;;20.20;82.10;;;;;;5043853;28;20036;-69
2021/06/12 06:43:54;;;;;;;10.40;8.70;;;20.30;81.70;;;;;;5048552;28;20037;-70
2021/06/12 06:46:19;;;;;;;9.45;8.32;;;20.40;81.50;;;;;;5049365;28;20040;-69
2021/06/12 06:48:45;;;;;;;8.90;8.00;;;20.50;81.40;;;;;;5050076;28;20500;-70
2021/06/12 06:51:10;;;;;;;9.00;8.10;;;20.60;81.40;;;;;;5064966;28;20027;-70
2021/06/12 06:53:36;;;;;;;9.07;8.18;;;20.70;81.40;;;;;;5047810;28;20037;-70
2021/06/12 06:56:03;;;;;;;8.80;7.95;;;20.90;81.10;;;;;;5040332;28;20793;-70
2021/06/12 06:58:29;;;;;;;12.55;7.85;;;21.10;80.80;;;;;;5050258;28;20056;-69
2021/06/12 07:00:55;;;;;;;10.30;7.82;;;21.40;80.60;;;;;;5043863;28;20060;-69
2021/06/12 07:03:21;;;;;;;8.52;7.78;;;21.50;79.60;;;;;;5049269;28;20028;-70
2021/06/12 07:05:47;;;;;;;9.88;7.75;;;21.60;79.10;;;;;;5049098;28;20021;-69
2021/06/12 07:08:12;;;;;;;10.07;8.57;;;21.70;79.00;;;;;;5048282;28;20499;-70
2021/06/12 07:10:38;;;;;;;10.75;7.45;;;21.80;78.40;;;;;;5038459;28;20060;-70
2021/06/12 07:13:04;;;;;;;9.35;7.10;;;21.80;78.10;;;;;;5042387;28;20059;-70
2021/06/12 07:15:29;;;;;;;7.60;6.60;;;21.90;78.00;;;;;;5048833;28;20032;-70
2021/06/12 07:17:55;;;;;;;9.15;6.68;;;22.10;78.20;;;;;;5063549;28;20086;-72
2021/06/12 07:20:23;;;;;;;7.70;6.95;;;22.10;78.10;;;;;;5048048;28;20029;-69
2021/06/12 07:22:49;;;;;;;12.55;7.68;;;22.20;77.80;;;;;;5048788;28;20036;-70
2021/06/12 07:25:14;;;;;;;10.45;8.07;;;22.20;77.40;;;;;;5048438;28;20087;-70
2021/06/12 07:27:40;;;;;;;9.05;7.88;;;22.30;77.30;;;;;;5048030;28;20394;-70
2021/06/12 07:30:07;;;;;;;7.63;6.93;;;22.40;76.80;;;;;;5046449;28;20037;-69
2021/06/12 07:32:32;;;;;;;8.38;6.70;;;22.40;76.70;;;;;;5043668;28;20048;-70
2021/06/12 07:34:58;;;;;;;7.85;6.57;;;22.60;76.60;;;;;;5046146;28;20485;-69
2021/06/12 07:37:24;;;;;;;7.93;6.80;;;22.90;76.40;;;;;;5048398;28;20076;-71
2021/06/12 07:39:50;;;;;;;8.45;7.25;;;23.10;76.30;;;;;;5049278;28;20030;-70
2021/06/12 07:42:15;;;;;;;13.18;6.97;;;23.30;75.80;;;;;;5051833;28;20034;-70
2021/06/12 07:44:41;;;;;;;9.05;6.13;;;23.50;75.30;;;;;;5030697;28;20064;-69
2021/06/12 07:47:06;;;;;;;7.38;6.28;;;23.70;75.10;;;;;;5050001;28;20041;-72
2021/06/12 07:49:32;;;;;;;9.00;5.90;;;24.00;74.50;;;;;;5049415;28;20017;-73
2021/06/12 07:51:58;;;;;;;7.63;6.43;;;24.30;74.00;;;;;;5049853;28;20478;-71
2021/06/12 07:54:24;;;;;;;6.30;5.57;;;24.70;73.50;;;;;;5046782;28;20025;-71
2021/06/12 07:56:49;;;;;;;6.15;5.00;;;25.00;72.80;;;;;;5047012;28;20048;-71
2021/06/12 07:59:15;;;;;;;7.85;4.90;;;25.30;72.50;;;;;;5048170;28;20401;-70
2021/06/12 08:01:41;;;;;;;7.70;4.63;;;25.40;71.40;;;;;;5040576;28;20412;-70
2021/06/12 08:04:06;;;;;;;5.10;4.63;;;25.50;70.90;;;;;;5049059;28;20039;-69
2021/06/12 08:06:32;;;;;;;4.60;4.15;;;25.60;70.00;;;;;;5050087;28;20083;-70
2021/06/12 08:08:58;;;;;;;7.68;4.07;;;26.00;69.00;;;;;;5060764;28;20030;-70
2021/06/12 08:11:23;;;;;;;5.97;4.18;;;26.20;67.90;;;;;;5030085;28;20441;-70
2021/06/12 08:13:49;;;;;;;5.13;4.18;;;26.40;67.90;;;;;;5048105;28;20029;-70
2021/06/12 08:16:15;;;;;;;4.30;3.90;;;26.20;67.00;;;;;;5049995;28;20029;-70
2021/06/12 08:18:40;;;;;;;7.38;3.97;;;26.20;67.60;;;;;;5049326;28;20116;-70
2021/06/12 08:21:06;;;;;;;4.93;4.50;;;26.20;66.60;;;;;;5053658;28;20033;-70
2021/06/12 08:23:31;;;;;;;5.78;4.28;;;26.40;67.10;;;;;;5053261;28;20040;-70
2021/06/12 08:25:57;;;;;;;6.30;4.60;;;26.80;67.00;;;;;;5034345;28;20028;-70
2021/06/12 08:28:23;;;;;;;7.78;4.40;;;27.30;66.60;;;;;;5048416;28;20070;-70
2021/06/12 08:30:49;;;;;;;5.07;3.50;;;27.90;65.90;;;;;;5041578;28;20032;-70
2021/06/12 08:33:14;;;;;;;11.13;4.20;;;28.30;64.10;;;;;;5033807;28;20022;-70
2021/06/12 08:35:40;;;;;;;4.47;4.05;;;28.70;63.00;;;;;;5046284;28;20107;-70
2021/06/12 08:38:07;;;;;;;5.65;3.85;;;28.80;61.70;;;;;;5053641;28;20083;-70
2021/06/12 08:40:34;;;;;;;9.10;3.90;;;28.90;61.30;;;;;;5052398;28;20028;-70
2021/06/12 08:43:00;;;;;;;4.43;3.50;;;29.20;60.60;;;;;;5053616;28;20029;-70
2021/06/12 08:45:28;;;;;;;5.65;3.78;;;29.40;60.00;;;;;;5052342;28;20096;-70
2021/06/12 08:47:55;;;;;;;4.40;4.00;;;29.40;58.80;;;;;;5053261;28;20024;-70
2021/06/12 08:50:23;;;;;;;4.50;3.70;;;29.60;58.40;;;;;;5052976;28;20032;-70
2021/06/12 08:52:49;;;;;;;9.55;6.60;;;29.50;58.40;;;;;;5052927;28;20032;-70
2021/06/12 08:55:16;;;;;;;4.68;4.28;;;29.60;58.90;;;;;;5051676;28;20033;-70
2021/06/12 08:57:41;;;;;;;5.85;4.28;;;29.90;58.20;;;;;;5052966;28;20079;-70
2021/06/12 09:03:22;;;;;;;4.60;4.20;;;30.20;57.30;;;;;;5029024;28;20111;-67
2021/06/12 09:05:59;;;;;;;5.53;4.03;;;30.70;56.40;;;;;;4993597;28;20049;-68
2021/06/12 09:08:33;;;;;;;5.07;4.63;;;30.80;55.80;;;;;;5013731;28;20478;-71
2021/06/12 09:11:05;;;;;;;7.40;5.35;;;30.60;55.10;;;;;;5031453;28;20111;-67
2021/06/12 09:13:47;;;;;;;7.93;5.07;;;30.40;54.90;;;;;;5042764;28;20049;-67
2021/06/12 09:16:28;;;;;;;8.63;5.60;;;29.60;55.70;;;;;;5051802;28;20036;-68
2021/06/12 09:18:55;;;;;;;6.53;5.63;;;29.30;56.30;;;;;;5052215;28;20025;-68
2021/06/12 09:21:33;;;;;;;7.25;5.10;;;29.70;56.00;;;;;;5052865;28;20075;-67
2021/06/12 09:24:00;;;;;;;5.28;4.53;;;29.80;55.30;;;;;;5028558;28;20120;-68
2021/06/12 09:26:43;;;;;;;5.82;4.78;;;29.80;56.10;;;;;;5032810;28;20044;-68
2021/06/12 09:29:10;;;;;;;8.15;5.00;;;29.70;56.20;;;;;;5024064;28;20462;-68
2021/06/12 09:31:44;;;;;;;10.30;4.57;;;29.70;56.40;;;;;;5026946;28;20108;-68
2021/06/12 09:34:12;;;;;;;18.42;12.38;;;29.90;56.20;;;;;;5035352;28;20025;-68
2021/06/12 09:36:38;;;;;;;5.05;4.38;;;30.00;56.00;;;;;;5013247;28;20025;-68
2021/06/12 09:39:06;;;;;;;6.93;4.40;;;29.70;55.70;;;;;;5016592;28;20116;-68
2021/06/12 09:41:32;;;;;;;4.72;4.13;;;29.40;56.00;;;;;;5031238;28;20574;-68
2021/06/12 09:43:58;;;;;;;5.25;4.55;;;29.70;55.30;;;;;;5035215;28;20028;-69
2021/06/12 09:46:43;;;;;;;4.80;3.85;;;30.50;53.90;;;;;;5038528;28;20081;-69
2021/06/12 09:49:12;;;;;;;5.18;3.50;;;31.30;52.80;;;;;;5048649;28;20017;-69
2021/06/12 09:51:38;;;;;;;6.15;3.50;;;32.00;52.10;;;;;;5029339;28;20132;-70
2021/06/12 09:54:05;;;;;;;6.30;3.70;;;32.10;51.50;;;;;;5011580;28;20112;-70
2021/06/12 09:56:32;;;;;;;4.18;3.78;;;31.80;51.20;;;;;;5031244;28;20389;-70
2021/06/12 09:59:00;;;;;;;5.75;3.20;;;31.40;51.70;;;;;;5030864;28;20025;-69
2021/06/12 10:01:31;;;;;;;4.30;3.60;;;31.10;52.40;;;;;;5030114;28;20071;-69
2021/06/12 10:04:14;;;;;;;6.63;3.85;;;30.80;51.60;;;;;;5012040;28;20026;-70
2021/06/12 10:06:40;;;;;;;4.63;3.75;;;30.70;52.50;;;;;;5031189;28;20026;-70
2021/06/12 10:09:06;;;;;;;6.25;3.50;;;30.60;52.50;;;;;;5012952;28;20040;-69
2021/06/12 10:11:33;;;;;;;4.57;2.83;;;30.40;52.80;;;;;;5029713;28;20033;-69
2021/06/12 10:14:01;;;;;;;4.13;3.10;;;30.30;53.60;;;;;;5025401;28;20026;-69
2021/06/12 10:16:30;;;;;;;4.75;3.20;;;30.30;53.40;;;;;;5030241;28;20490;-69
2021/06/12 10:18:58;;;;;;;4.20;2.90;;;30.40;54.30;;;;;;5012339;28;20032;-72
2021/06/12 10:21:24;;;;;;;6.38;3.53;;;30.50;54.40;;;;;;5015916;28;20100;-71
2021/06/12 10:23:50;;;;;;;3.90;3.10;;;30.40;53.80;;;;;;5029337;28;20085;-70
2021/06/12 10:26:18;;;;;;;3.70;2.95;;;30.30;53.50;;;;;;5029934;28;20095;-69
2021/06/12 10:28:44;;;;;;;5.10;3.03;;;30.20;53.80;;;;;;5015141;28;20374;-69
2021/06/12 10:31:21;;;;;;;3.17;2.90;;;30.10;53.70;;;;;;5029726;28;20028;-69
2021/06/12 10:33:49;;;;;;;3.38;2.60;;;30.00;53.20;;;;;;5030621;28;20167;-68
2021/06/12 10:36:17;;;;;;;4.40;2.60;;;29.90;53.80;;;;;;5022924;28;20109;-69
2021/06/12 10:38:44;;;;;;;2.80;2.58;;;30.00;54.80;;;;;;5030802;28;20076;-69
2021/06/12 10:41:22;;;;;;;5.10;2.50;;;30.10;55.00;;;;;;5016022;28;20029;-69
2021/06/12 10:43:49;;;;;;;2.90;2.60;;;30.30;54.30;;;;;;5031032;28;20040;-69
2021/06/12 10:46:21;;;;;;;5.72;3.10;;;30.30;54.40;;;;;;5034516;28;20025;-69
2021/06/12 10:48:52;;;;;;;;;;;30.30;53.50;;;;;;5016032;28;20021;-68
2021/06/12 10:51:26;;;;;;;6.75;3.17;;;30.00;54.70;;;;;;5030630;28;19971;-69
2021/06/12 10:56:38;;;;;;;2.47;2.05;;;29.70;54.40;;;;;;5031096;28;20025;-69
2021/06/12 10:59:05;;;;;;;4.15;2.80;;;29.60;55.10;;;;;;5031816;28;20033;-68
2021/06/12 11:01:31;;;;;;;3.45;3.00;;;29.60;53.80;;;;;;5029658;28;20045;-70
2021/06/12 11:04:07;;;;;;;5.35;2.50;;;29.20;53.20;;;;;;5031111;28;20107;-69
2021/06/12 11:09:15;;;;;;;3.75;2.22;;;28.70;54.10;;;;;;5030657;28;20044;-68
2021/06/12 11:11:46;;;;;;;2.83;2.25;;;28.60;54.20;;;;;;5027778;28;20044;-70
2021/06/12 11:14:20;;;;;;;3.47;2.30;;;28.50;54.40;;;;;;5039723;28;20127;-68
2021/06/12 11:17:13;;;;;;;3.17;1.98;;;28.40;55.20;;;;;;5025316;28;20053;-70
2021/06/12 11:19:59;;;;;;;5.72;2.10;;;28.30;55.20;;;;;;5026564;28;20026;-68
2021/06/12 11:22:41;;;;;;;3.90;1.83;;;28.20;54.70;;;;;;5028205;28;20425;-70
2021/06/12 11:25:12;;;;;;;4.00;1.98;;;28.00;55.20;;;;;;5028154;28;20482;-69
2021/06/12 11:27:48;;;;;;;5.95;2.60;;;28.10;56.20;;;;;;5028373;28;20482;-69
2021/06/12 11:30:20;;;;;;;2.63;2.42;;;28.10;56.90;;;;;;5029065;28;20456;-70
2021/06/12 11:32:50;;;;;;;2.60;2.40;;;28.20;56.40;;;;;;5009655;28;20029;-70
2021/06/12 11:35:37;;;;;;;2.55;2.03;;;28.20;56.30;;;;;;5010107;28;20084;-69
2021/06/12 11:38:04;;;;;;;3.67;2.45;;;28.20;56.60;;;;;;5010069;28;20029;-69
2021/06/12 11:40:30;;;;;;;5.82;2.40;;;28.20;56.20;;;;;;5035749;28;20397;-68
2021/06/12 11:42:56;;;;;;;3.92;2.20;;;28.20;55.80;;;;;;5030113;28;20029;-70
2021/06/12 11:45:42;;;;;;;2.78;2.03;;;28.20;55.70;;;;;;5028665;28;20032;-66
2021/06/12 11:48:19;;;;;;;5.63;1.90;;;28.30;55.40;;;;;;5023647;28;20061;-72
2021/06/12 11:50:45;;;;;;;3.30;2.10;;;28.30;55.50;;;;;;5036887;28;20148;-70
2021/06/12 11:53:17;;;;;;;2.55;2.13;;;28.30;56.00;;;;;;5030578;28;20529;-71
2021/06/12 11:55:44;;;;;;;4.68;2.17;;;28.30;55.50;;;;;;5032681;28;20018;-71
2021/06/12 11:58:10;;;;;;;1.92;1.80;;;28.30;56.10;;;;;;5034438;28;20021;-70
2021/06/12 12:00:41;;;;;;;5.57;2.50;;;28.30;55.50;;;;;;5033523;28;20017;-69
2021/06/12 12:03:09;;;;;;;2.53;2.33;;;28.10;55.00;;;;;;5034122;28;20029;-69
2021/06/12 12:05:43;;;;;;;3.60;2.47;;;28.00;55.30;;;;;;5033545;28;20509;-70
2021/06/12 12:08:14;;;;;;;7.78;4.05;;;27.90;55.50;;;;;;5016074;28;20080;-69
2021/06/12 12:10:43;;;;;;;6.28;2.80;;;27.90;56.70;;;;;;5020842;28;20022;-69
2021/06/12 12:13:37;;;;;;;4.53;2.83;;;27.90;56.10;;;;;;5016561;28;20108;-69
2021/06/12 12:16:18;;;;;;;5.53;2.78;;;27.80;55.80;;;;;;5032534;28;20049;-69
2021/06/12 12:18:45;;;;;;;4.75;2.42;;;27.70;56.00;;;;;;5033468;28;20029;-69
2021/06/12 12:21:11;;;;;;;4.82;2.58;;;27.80;56.50;;;;;;5033873;28;20030;-70
2021/06/12 12:23:36;;;;;;;3.45;2.08;;;27.80;56.80;;;;;;5033983;28;20024;-70
2021/06/12 12:26:11;;;;;;;2.60;2.08;;;28.00;56.40;;;;;;5032756;28;20106;-70
2021/06/12 12:28:56;;;;;;;3.75;2.53;;;28.00;55.70;;;;;;5032124;28;20105;-69
2021/06/12 12:31:24;;;;;;;3.30;2.20;;;28.10;55.20;;;;;;5027945;28;20049;-69
2021/06/12 12:33:51;;;;;;;4.10;2.10;;;27.90;55.00;;;;;;5030182;28;20025;-70
2021/06/12 12:36:17;;;;;;;7.88;2.20;;;27.90;55.10;;;;;;5033156;28;20067;-69
2021/06/12 12:38:52;;;;;;;4.40;2.28;;;27.90;55.00;;;;;;5033458;28;20026;-70
2021/06/12 12:41:18;;;;;;;5.03;2.20;;;27.80;55.00;;;;;;5033578;28;20064;-70
2021/06/12 12:43:44;;;;;;;4.88;2.28;;;27.70;54.90;;;;;;5012984;28;20049;-70
2021/06/12 12:46:10;;;;;;;3.38;2.33;;;27.70;55.10;;;;;;5025694;28;20032;-69
2021/06/12 12:48:39;;;;;;;3.05;2.22;;;27.70;55.00;;;;;;5015145;28;20068;-70